createdAt,value
2018-06-09T00:00:28.399Z,59.10
2018-06-09T00:02:56.719Z,53.70
2018-06-09T00:05:25.080Z,56.23
2018-06-09T00:07:53.407Z,50.53
2018-06-09T00:10:21.735Z,53.87
2018-06-09T00:12:50.064Z,56.93
2018-06-09T00:15:18.375Z,56.43
2018-06-09T00:17:46.709Z,58.40
2018-06-09T00:20:15.132Z,57.87
2018-06-09T00:22:43.452Z,62.90
2018-06-09T00:25:11.800Z,56.90
2018-06-09T00:27:40.136Z,65.30
2018-06-09T00:30:08.472Z,56.50
2018-06-09T00:32:36.875Z,50.60
2018-06-09T00:35:05.247Z,55.60
2018-06-09T00:37:33.584Z,57.13
2018-06-09T00:40:01.903Z,56.33
2018-06-09T00:42:30.398Z,49.60
2018-06-09T00:44:58.748Z,59.43
2018-06-09T00:47:27.112Z,58.93
2018-06-09T00:49:55.426Z,55.23
2018-06-09T00:52:23.811Z,63.57
2018-06-09T00:54:52.131Z,57.27
2018-06-09T00:57:20.444Z,65.10
2018-06-09T00:59:48.874Z,62.50
2018-06-09T01:02:17.248Z,59.70
2018-06-09T01:04:45.642Z,66.07
2018-06-09T01:07:14.014Z,76.23
2018-06-09T01:09:42.323Z,68.73
2018-06-09T01:12:10.651Z,68.87
2018-06-09T01:14:39.371Z,67.60
2018-06-09T01:17:07.731Z,60.30
2018-06-09T01:19:36.167Z,66.47
2018-06-09T01:22:04.496Z,69.07
2018-06-09T01:24:32.785Z,67.83
2018-06-09T01:27:01.084Z,57.13
2018-06-09T01:29:29.414Z,66.13
2018-06-09T01:31:57.810Z,58.80
2018-06-09T01:34:26.167Z,71.63
2018-06-09T01:36:54.482Z,68.17
2018-06-09T01:39:22.805Z,64.30
2018-06-09T01:41:51.160Z,63.80
2018-06-09T01:44:19.484Z,56.03
2018-06-09T01:46:47.824Z,61.00
2018-06-09T01:49:16.148Z,54.70
2018-06-09T01:51:44.456Z,64.70
2018-06-09T01:54:12.792Z,58.27
2018-06-09T01:56:41.155Z,58.57
2018-06-09T01:59:09.595Z,71.13
2018-06-09T02:01:37.927Z,61.40
2018-06-09T02:04:06.283Z,59.73
2018-06-09T02:06:34.603Z,70.47
2018-06-09T02:09:03.080Z,59.30
2018-06-09T02:11:31.386Z,54.43
2018-06-09T02:13:59.728Z,71.43
2018-06-09T02:16:28.073Z,73.83
2018-06-09T02:18:56.387Z,60.83
2018-06-09T02:21:24.726Z,65.67
2018-06-09T02:23:53.064Z,72.57
2018-06-09T02:26:21.396Z,65.53
2018-06-09T02:28:49.766Z,68.57
2018-06-09T02:31:18.079Z,60.83
2018-06-09T02:33:46.886Z,59.77
2018-06-09T02:36:15.225Z,71.33
2018-06-09T02:38:43.551Z,64.47
2018-06-09T02:41:11.879Z,56.37
2018-06-09T02:43:40.238Z,65.73
2018-06-09T02:46:08.556Z,69.07
2018-06-09T02:48:36.895Z,78.87
2018-06-09T02:51:05.224Z,66.50
2018-06-09T02:53:33.548Z,55.93
2018-06-09T02:56:01.866Z,67.30
2018-06-09T02:58:30.180Z,67.57
2018-06-09T03:00:58.581Z,60.13
2018-06-09T03:03:26.904Z,67.60
2018-06-09T03:05:55.232Z,65.13
2018-06-09T03:08:23.638Z,68.47
2018-06-09T03:10:51.974Z,71.53
2018-06-09T03:13:20.296Z,70.47
2018-06-09T03:15:48.648Z,69.50
2018-06-09T03:18:17.196Z,82.93
2018-06-09T03:20:45.567Z,64.70
2018-06-09T03:23:13.976Z,73.27
2018-06-09T03:25:42.347Z,80.27
2018-06-09T03:28:10.679Z,67.17
2018-06-09T03:30:39.006Z,72.30
2018-06-09T03:33:07.315Z,88.40
2018-06-09T03:35:36.015Z,90.97
2018-06-09T03:38:04.344Z,82.37
2018-06-09T03:40:32.699Z,82.13
2018-06-09T03:43:01.112Z,101.20
2018-06-09T03:45:29.410Z,72.40
2018-06-09T03:47:57.732Z,84.93
2018-06-09T03:50:26.067Z,88.60
2018-06-09T03:52:54.422Z,89.90
2018-06-09T03:55:22.783Z,87.37
2018-06-09T03:57:51.143Z,83.70
2018-06-09T04:00:19.429Z,80.13
2018-06-09T04:02:47.758Z,85.90
2018-06-09T04:05:16.096Z,99.10
2018-06-09T04:07:44.471Z,90.63
2018-06-09T04:10:12.784Z,92.20
2018-06-09T04:12:41.255Z,78.97
2018-06-09T04:15:09.672Z,72.07
2018-06-09T04:17:37.974Z,74.03
2018-06-09T04:20:06.367Z,77.90
2018-06-09T04:22:35.581Z,77.27
2018-06-09T04:25:03.999Z,84.00
2018-06-09T04:27:32.387Z,69.20
2018-06-09T04:30:00.719Z,81.47
2018-06-09T04:32:29.116Z,82.20
2018-06-09T04:34:57.427Z,84.13
2018-06-09T04:37:25.828Z,72.40
2018-06-09T04:39:54.248Z,64.43
2018-06-09T04:42:22.544Z,71.17
2018-06-09T04:44:50.870Z,62.27
2018-06-09T04:47:19.213Z,77.93
2018-06-09T04:49:47.531Z,59.53
2018-06-09T04:52:15.954Z,71.00
2018-06-09T04:54:44.249Z,59.23
2018-06-09T04:57:12.591Z,63.53
2018-06-09T04:59:40.944Z,63.77
2018-06-09T05:02:09.316Z,61.57
2018-06-09T05:04:37.664Z,62.87
2018-06-09T05:07:06.052Z,61.00
2018-06-09T05:09:34.368Z,61.97
2018-06-09T05:12:02.959Z,64.53
2018-06-09T05:14:31.291Z,64.63
2018-06-09T05:17:00.183Z,58.47
2018-06-09T05:19:28.600Z,59.47
2018-06-09T05:21:56.911Z,59.50
2018-06-09T05:24:25.834Z,58.27
2018-06-09T05:26:54.151Z,64.10
2018-06-09T05:29:22.557Z,68.93
2018-06-09T05:31:50.988Z,59.07
2018-06-09T05:34:19.355Z,62.13
2018-06-09T05:36:47.776Z,67.93
2018-06-09T05:39:16.115Z,62.27
2018-06-09T05:41:44.436Z,62.23
2018-06-09T05:44:12.774Z,51.83
2018-06-09T05:46:41.147Z,66.70
2018-06-09T05:49:09.537Z,68.97
2018-06-09T05:51:37.968Z,58.80
2018-06-09T05:54:06.325Z,61.87
2018-06-09T05:56:34.727Z,63.93
2018-06-09T05:59:03.180Z,60.43
2018-06-09T06:01:32.102Z,68.30
2018-06-09T06:04:00.539Z,55.17
2018-06-09T06:06:28.915Z,61.37
2018-06-09T06:08:57.262Z,50.30
2018-06-09T06:11:25.572Z,51.43
2018-06-09T06:13:54.179Z,61.63
2018-06-09T06:16:22.556Z,56.60
2018-06-09T06:18:50.976Z,56.47
2018-06-09T06:21:19.383Z,51.10
2018-06-09T06:23:47.797Z,50.33
2018-06-09T06:26:16.232Z,53.13
2018-06-09T06:28:44.561Z,51.63
2018-06-09T06:31:12.963Z,49.10
2018-06-09T06:33:41.424Z,63.80
2018-06-09T06:36:09.799Z,55.10
2018-06-09T06:38:38.143Z,54.73
2018-06-09T06:41:06.712Z,62.70
2018-06-09T06:43:35.007Z,66.07
2018-06-09T06:46:03.410Z,63.20
2018-06-09T06:48:31.779Z,63.80
2018-06-09T06:51:00.176Z,76.17
2018-06-09T06:53:28.511Z,54.07
2018-06-09T06:55:56.855Z,69.60
2018-06-09T06:58:25.183Z,64.67
2018-06-09T07:00:53.522Z,52.00
2018-06-09T07:03:21.859Z,61.47
2018-06-09T07:05:50.240Z,52.33
2018-06-09T07:08:18.660Z,69.73
2018-06-09T07:10:46.978Z,68.33
2018-06-09T07:13:15.274Z,60.10
2018-06-09T07:15:43.608Z,59.77
2018-06-09T07:18:12.015Z,58.87
2018-06-09T07:20:40.349Z,70.13
2018-06-09T07:23:08.727Z,63.20
2018-06-09T07:25:43.599Z,73.63
2018-06-09T07:28:11.984Z,74.63
2018-06-09T07:30:40.372Z,80.27
2018-06-09T07:33:08.751Z,79.97
2018-06-09T07:35:37.116Z,91.80
2018-06-09T07:38:05.547Z,86.33
2018-06-09T07:40:33.916Z,99.37
2018-06-09T07:43:02.235Z,92.77
2018-06-09T07:45:30.690Z,95.17
2018-06-09T07:47:59.676Z,97.83
2018-06-09T07:50:28.059Z,93.57
2018-06-09T07:52:56.459Z,95.57
2018-06-09T07:55:24.821Z,106.77
2018-06-09T07:57:53.131Z,88.50
2018-06-09T08:00:21.468Z,77.80
2018-06-09T08:02:49.870Z,93.57
2018-06-09T08:05:18.236Z,85.30
2018-06-09T08:07:46.614Z,86.33
2018-06-09T08:10:15.477Z,77.63
2018-06-09T08:12:43.844Z,85.50
2018-06-09T08:15:12.265Z,78.47
2018-06-09T08:17:40.633Z,73.37
2018-06-09T08:20:08.963Z,76.10
2018-06-09T08:22:37.329Z,74.13
2018-06-09T08:25:05.671Z,68.20
2018-06-09T08:27:34.112Z,67.97
2018-06-09T08:30:02.517Z,67.47
2018-06-09T08:32:30.852Z,66.07
2018-06-09T08:34:59.211Z,55.47
2018-06-09T08:37:27.551Z,55.83
2018-06-09T08:39:55.879Z,59.37
2018-06-09T08:42:24.259Z,57.50
2018-06-09T08:44:52.631Z,49.43
2018-06-09T08:47:21.119Z,53.70
2018-06-09T08:49:49.480Z,52.40
2018-06-09T08:52:17.855Z,50.10
2018-06-09T08:54:46.200Z,45.17
2018-06-09T08:57:14.553Z,49.90
2018-06-09T08:59:42.898Z,46.83
2018-06-09T09:02:11.259Z,49.77
2018-06-09T09:04:39.625Z,49.37
2018-06-09T09:07:08.052Z,46.37
2018-06-09T09:09:36.456Z,51.57
2018-06-09T09:12:04.860Z,41.17
2018-06-09T09:14:33.272Z,40.37
2018-06-09T09:17:01.589Z,42.57
2018-06-09T09:19:30.029Z,40.77
2018-06-09T09:21:58.379Z,39.37
2018-06-09T09:24:26.776Z,38.63
2018-06-09T09:26:55.184Z,42.50
2018-06-09T09:29:23.527Z,39.30
2018-06-09T09:31:51.894Z,35.53
2018-06-09T09:34:20.235Z,36.63
2018-06-09T09:36:49.731Z,35.33
2018-06-09T09:39:18.063Z,37.63
2018-06-09T09:41:46.427Z,34.77
2018-06-09T09:44:14.857Z,38.17
2018-06-09T09:46:43.237Z,34.37
2018-06-09T09:49:11.589Z,36.73
2018-06-09T09:51:39.991Z,33.43
2018-06-09T09:54:08.339Z,31.07
2018-06-09T09:56:37.619Z,27.73
2018-06-09T09:59:06.032Z,26.87
2018-06-09T10:01:34.463Z,32.47
2018-06-09T10:04:02.819Z,27.50
2018-06-09T10:06:31.259Z,29.50
2018-06-09T10:08:59.591Z,24.77
2018-06-09T10:11:28.059Z,22.03
2018-06-09T10:13:56.423Z,23.93
2018-06-09T10:16:24.813Z,27.27
2018-06-09T10:18:53.156Z,32.30
2018-06-09T10:21:21.589Z,29.80
2018-06-09T10:23:49.976Z,25.60
2018-06-09T10:26:18.415Z,24.67
2018-06-09T10:28:46.782Z,27.47
2018-06-09T10:31:15.096Z,24.50
2018-06-09T10:33:43.420Z,25.07
2018-06-09T10:36:11.738Z,25.53
2018-06-09T10:38:40.773Z,26.93
2018-06-09T10:41:09.127Z,21.63
2018-06-09T10:43:37.616Z,26.63
2018-06-09T10:46:05.956Z,23.83
2018-06-09T10:48:34.367Z,26.27
2018-06-09T10:51:02.715Z,26.70
2018-06-09T10:53:31.038Z,27.53
2018-06-09T10:55:59.423Z,27.77
2018-06-09T10:58:27.768Z,23.23
2018-06-09T11:00:56.169Z,28.37
2018-06-09T11:03:24.523Z,29.03
2018-06-09T11:05:52.930Z,29.90
2018-06-09T11:08:21.278Z,25.00
2018-06-09T11:10:49.655Z,24.90
2018-06-09T11:13:18.096Z,23.37
2018-06-09T11:15:46.485Z,25.77
2018-06-09T11:18:14.802Z,24.83
2018-06-09T11:20:43.128Z,26.90
2018-06-09T11:23:11.624Z,22.47
2018-06-09T11:25:40.035Z,23.33
2018-06-09T11:28:08.626Z,25.33
2018-06-09T11:30:36.987Z,24.23
2018-06-09T11:33:05.376Z,26.43
2018-06-09T11:35:33.707Z,24.80
2018-06-09T11:38:02.117Z,32.17
2018-06-09T11:40:30.497Z,24.10
2018-06-09T11:42:58.896Z,24.27
2018-06-09T11:45:27.249Z,21.07
2018-06-09T11:47:55.707Z,27.17
2018-06-09T11:50:24.147Z,22.87
2018-06-09T11:52:52.584Z,22.00
2018-06-09T11:55:21.051Z,24.33
2018-06-09T11:57:49.441Z,32.93
2018-06-09T12:00:17.826Z,24.83
2018-06-09T12:02:46.151Z,26.87
2018-06-09T12:05:14.554Z,21.87
2018-06-09T12:07:42.991Z,24.03
2018-06-09T12:10:11.467Z,24.30
2018-06-09T12:12:40.960Z,24.77
2018-06-09T12:15:09.328Z,25.73
2018-06-09T12:17:37.675Z,20.70
2018-06-09T12:20:06.078Z,24.33
2018-06-09T12:22:34.431Z,29.97
2018-06-09T12:25:02.867Z,28.53
2018-06-09T12:27:31.235Z,24.50
2018-06-09T12:29:59.552Z,22.33
2018-06-09T12:32:27.941Z,25.83
2018-06-09T12:34:56.311Z,26.20
2018-06-09T12:37:24.791Z,23.90
2018-06-09T12:39:53.150Z,25.73
2018-06-09T12:42:21.706Z,24.33
2018-06-09T12:44:50.088Z,24.27
2018-06-09T12:47:18.384Z,23.73
2018-06-09T12:49:46.863Z,21.60
2018-06-09T12:52:15.259Z,25.87
2018-06-09T12:54:43.648Z,22.47
2018-06-09T12:57:12.052Z,20.63
2018-06-09T12:59:41.500Z,21.73
2018-06-09T13:02:09.948Z,25.00
2018-06-09T13:04:38.358Z,25.63
2018-06-09T13:07:07.068Z,20.57
2018-06-09T13:09:35.527Z,23.97
2018-06-09T13:12:03.934Z,21.77
2018-06-09T13:14:32.337Z,28.53
2018-06-09T13:17:00.719Z,25.00
2018-06-09T13:19:29.124Z,22.60
2018-06-09T13:21:57.437Z,23.93
2018-06-09T13:24:25.920Z,24.47
2018-06-09T13:26:54.320Z,28.70
2018-06-09T13:29:22.653Z,24.07
2018-06-09T13:31:51.010Z,22.60
2018-06-09T13:34:19.355Z,24.67
2018-06-09T13:36:47.750Z,28.40
2018-06-09T13:39:16.178Z,32.47
2018-06-09T13:41:45.075Z,27.73
2018-06-09T13:44:13.367Z,23.77
2018-06-09T13:46:42.036Z,27.00
2018-06-09T13:49:10.407Z,27.07
2018-06-09T13:51:38.716Z,28.37
2018-06-09T13:54:07.164Z,20.67
2018-06-09T13:56:35.615Z,18.17
2018-06-09T13:59:04.112Z,20.57
2018-06-09T14:01:32.494Z,19.30
2018-06-09T14:04:00.847Z,23.90
2018-06-09T14:06:29.199Z,22.80
2018-06-09T14:08:57.655Z,19.27
2018-06-09T14:11:26.040Z,18.63
2018-06-09T14:13:54.395Z,18.13
2018-06-09T14:16:22.759Z,19.40
2018-06-09T14:18:51.095Z,23.00
2018-06-09T14:21:19.495Z,27.20
2018-06-09T14:23:48.024Z,23.47
2018-06-09T14:26:16.468Z,22.47
2018-06-09T14:28:45.025Z,22.17
2018-06-09T14:31:13.424Z,24.60
2018-06-09T14:33:41.896Z,20.17
2018-06-09T14:36:10.470Z,17.70
2018-06-09T14:38:39.033Z,20.03
2018-06-09T14:41:16.293Z,15.77
2018-06-09T14:43:44.639Z,16.47
2018-06-09T14:46:13.054Z,19.43
2018-06-09T14:48:41.556Z,19.53
2018-06-09T14:51:09.919Z,22.33
2018-06-09T14:53:41.954Z,21.40
2018-06-09T14:56:11.604Z,15.03
2018-06-09T14:58:40.077Z,22.43
2018-06-09T15:01:08.549Z,19.80
2018-06-09T15:03:37.036Z,17.03
2018-06-09T15:06:05.466Z,20.83
2018-06-09T15:08:33.904Z,19.80
2018-06-09T15:11:02.320Z,16.83
2018-06-09T15:13:30.729Z,19.37
2018-06-09T15:15:59.113Z,19.10
2018-06-09T15:18:27.485Z,15.20
2018-06-09T15:20:55.906Z,20.17
2018-06-09T15:23:24.338Z,18.87
2018-06-09T15:25:52.681Z,15.40
2018-06-09T15:28:21.133Z,20.30
2018-06-09T15:30:49.520Z,16.03
2018-06-09T15:33:17.918Z,15.17
2018-06-09T15:35:46.350Z,14.13
2018-06-09T15:38:14.753Z,15.20
2018-06-09T15:40:43.105Z,15.97
2018-06-09T15:43:11.543Z,14.50
2018-06-09T15:45:39.930Z,15.53
2018-06-09T15:48:08.242Z,16.07
2018-06-09T15:50:36.671Z,16.13
2018-06-09T15:53:06.399Z,20.57
2018-06-09T15:55:34.775Z,15.87
2018-06-09T15:58:03.242Z,16.67
2018-06-09T16:00:31.647Z,18.37
2018-06-09T16:03:00.021Z,15.33
2018-06-09T16:05:28.482Z,15.43
2018-06-09T16:07:57.542Z,14.83
2018-06-09T16:10:25.870Z,16.23
2018-06-09T16:12:54.257Z,15.07
2018-06-09T16:15:22.671Z,14.10
2018-06-09T16:17:52.098Z,15.10
2018-06-09T16:20:20.480Z,13.23
2018-06-09T16:22:49.461Z,14.07
2018-06-09T16:25:18.344Z,16.33
2018-06-09T16:27:46.675Z,14.37
2018-06-09T16:30:15.110Z,15.07
2018-06-09T16:32:43.514Z,15.67
2018-06-09T16:35:11.892Z,14.00
2018-06-09T16:37:40.234Z,13.47
2018-06-09T16:40:08.567Z,16.37
2018-06-09T16:42:36.912Z,16.70
2018-06-09T16:45:05.282Z,16.60
2018-06-09T16:47:33.710Z,15.00
2018-06-09T16:50:02.039Z,12.40
2018-06-09T16:52:30.496Z,12.20
2018-06-09T16:54:58.864Z,15.13
2018-06-09T16:57:27.257Z,15.40
2018-06-09T16:59:56.367Z,14.13
2018-06-09T17:02:24.789Z,11.90
2018-06-09T17:04:53.257Z,11.43
2018-06-09T17:07:21.748Z,15.93
2018-06-09T17:09:50.139Z,12.63
2018-06-09T17:12:18.609Z,18.37
2018-06-09T17:14:47.077Z,14.67
2018-06-09T17:17:15.473Z,18.53
2018-06-09T17:19:43.912Z,16.00
2018-06-09T17:22:12.339Z,17.40
2018-06-09T17:24:40.743Z,16.97
2018-06-09T17:27:09.204Z,15.90
2018-06-09T17:29:37.564Z,14.33
2018-06-09T17:32:05.944Z,16.87
2018-06-09T17:34:34.456Z,13.50
2018-06-09T17:37:02.912Z,11.97
2018-06-09T17:39:31.291Z,15.93
2018-06-09T17:41:59.682Z,16.70
2018-06-09T17:44:28.102Z,14.93
2018-06-09T17:46:56.486Z,15.83
2018-06-09T17:49:25.084Z,15.43
2018-06-09T17:51:53.564Z,17.80
2018-06-09T17:54:22.072Z,18.53
2018-06-09T17:56:50.456Z,16.77
2018-06-09T17:59:18.868Z,17.87
2018-06-09T18:01:47.219Z,16.10
2018-06-09T18:04:16.381Z,17.33
2018-06-09T18:06:44.748Z,16.23
2018-06-09T18:09:13.099Z,13.93
2018-06-09T18:11:42.123Z,18.67
2018-06-09T18:14:10.500Z,15.50
2018-06-09T18:16:38.897Z,15.77
2018-06-09T18:19:07.212Z,16.77
2018-06-09T18:21:35.523Z,22.50
2018-06-09T18:24:03.983Z,15.27
2018-06-09T18:26:32.343Z,20.10
2018-06-09T18:29:00.677Z,17.07
2018-06-09T18:31:29.065Z,18.30
2018-06-09T18:33:57.415Z,16.60
2018-06-09T18:36:25.767Z,21.13
2018-06-09T18:38:54.728Z,17.87
2018-06-09T18:41:23.094Z,21.20
2018-06-09T18:43:51.457Z,17.43
2018-06-09T18:46:19.833Z,18.63
2018-06-09T18:48:48.307Z,17.73
2018-06-09T18:51:16.705Z,17.97
2018-06-09T18:53:45.110Z,17.03
2018-06-09T18:56:13.611Z,20.87
2018-06-09T18:58:42.146Z,18.50
2018-06-09T19:01:10.527Z,19.93
2018-06-09T19:03:39.008Z,17.47
2018-06-09T19:06:07.439Z,18.57
2018-06-09T19:08:35.928Z,18.77
2018-06-09T19:11:04.342Z,16.13
2018-06-09T19:13:32.863Z,16.73
2018-06-09T19:16:01.285Z,17.53
2018-06-09T19:18:29.660Z,16.53
2018-06-09T19:20:58.087Z,17.80
2018-06-09T19:23:27.173Z,19.50
2018-06-09T19:25:55.761Z,19.90
2018-06-09T19:28:24.155Z,19.73
2018-06-09T19:30:52.647Z,19.13
2018-06-09T19:33:21.059Z,41.37
2018-06-09T19:35:49.519Z,34.33
2018-06-09T19:38:17.910Z,26.13
2018-06-09T19:40:46.388Z,20.80
2018-06-09T19:43:14.832Z,18.80
2018-06-09T19:45:43.191Z,19.47
2018-06-09T19:48:11.578Z,17.63
2018-06-09T19:50:39.919Z,19.90
2018-06-09T19:53:08.385Z,18.67
2018-06-09T19:55:37.636Z,19.67
2018-06-09T19:58:06.329Z,17.97
2018-06-09T20:00:34.764Z,18.30
2018-06-09T20:03:03.657Z,18.10
2018-06-09T20:05:32.016Z,17.90
2018-06-09T20:08:00.446Z,21.73
2018-06-09T20:10:28.883Z,21.97
2018-06-09T20:12:57.355Z,19.03
2018-06-09T20:15:25.716Z,20.70
2018-06-09T20:17:54.088Z,20.97
2018-06-09T20:20:22.417Z,19.63
2018-06-09T20:22:50.794Z,20.53
2018-06-09T20:25:19.227Z,18.27
2018-06-09T20:27:47.682Z,19.77
2018-06-09T20:30:16.077Z,18.67
2018-06-09T20:32:44.478Z,20.77
2018-06-09T20:35:12.826Z,19.97
2018-06-09T20:37:41.214Z,19.03
2018-06-09T20:40:09.651Z,19.47
2018-06-09T20:42:38.027Z,20.97
2018-06-09T20:45:06.461Z,23.17
2018-06-09T20:47:34.861Z,21.53
2018-06-09T20:50:03.282Z,20.17
2018-06-09T20:52:31.676Z,21.50
2018-06-09T20:55:00.116Z,21.83
2018-06-09T20:57:28.575Z,27.40
2018-06-09T20:59:56.980Z,25.17
2018-06-09T21:02:25.414Z,22.90
2018-06-09T21:04:53.752Z,21.00
2018-06-09T21:07:22.583Z,23.77
2018-06-09T21:09:50.989Z,24.50
2018-06-09T21:12:19.399Z,24.43
2018-06-09T21:14:47.755Z,22.37
2018-06-09T21:17:16.107Z,23.77
2018-06-09T21:19:44.584Z,23.90
2018-06-09T21:22:12.952Z,25.07
2018-06-09T21:24:41.368Z,23.73
2018-06-09T21:27:14.953Z,22.50
2018-06-09T21:29:48.664Z,24.23
2018-06-09T21:32:22.419Z,25.60
2018-06-09T21:35:04.364Z,34.73
2018-06-09T21:37:40.024Z,59.50
2018-06-09T21:40:13.708Z,64.73
2018-06-09T21:42:44.318Z,72.13
2018-06-09T21:45:16.907Z,75.33
2018-06-09T21:47:45.304Z,55.40
2018-06-09T21:50:13.674Z,79.97
2018-06-09T21:52:42.081Z,51.13
2018-06-09T21:55:10.553Z,73.27
2018-06-09T21:57:38.998Z,72.93
2018-06-09T22:00:08.229Z,67.17
2018-06-09T22:02:36.682Z,76.87
2018-06-09T22:05:05.124Z,96.87
2018-06-09T22:07:33.527Z,89.17
2018-06-09T22:10:01.984Z,83.40
2018-06-09T22:12:30.983Z,46.83
2018-06-09T22:14:59.249Z,41.47
2018-06-09T22:17:28.865Z,86.83
2018-06-09T22:19:57.236Z,154.30
2018-06-09T22:22:25.679Z,452.43
2018-06-09T22:24:54.139Z,87.27
2018-06-09T22:27:22.586Z,48.73
2018-06-09T22:29:50.974Z,43.03
2018-06-09T22:32:19.295Z,47.03
2018-06-09T22:34:47.665Z,51.20
2018-06-09T22:37:16.219Z,40.27
2018-06-09T22:39:44.660Z,44.10
2018-06-09T22:42:13.007Z,59.37
2018-06-09T22:44:41.356Z,110.80
2018-06-09T22:47:09.761Z,34.23
2018-06-09T22:49:40.989Z,33.87
2018-06-09T22:52:09.379Z,27.30
2018-06-09T22:54:37.897Z,29.33
2018-06-09T22:57:06.284Z,22.30
2018-06-09T22:59:34.760Z,19.30
2018-06-09T23:02:03.628Z,21.03
2018-06-09T23:04:32.014Z,20.40
2018-06-09T23:07:00.539Z,25.67
2018-06-09T23:09:28.976Z,23.40
2018-06-09T23:11:57.416Z,19.67
2018-06-09T23:14:26.432Z,31.80
2018-06-09T23:16:55.130Z,100.73
2018-06-09T23:19:23.517Z,104.97
2018-06-09T23:21:51.893Z,71.93
2018-06-09T23:24:20.275Z,67.83
2018-06-09T23:26:48.755Z,64.87
2018-06-09T23:29:17.160Z,71.20
2018-06-09T23:31:45.551Z,51.70
2018-06-09T23:34:14.002Z,34.40
2018-06-09T23:36:42.360Z,26.50
2018-06-09T23:39:10.734Z,22.40
2018-06-09T23:41:39.158Z,22.23
2018-06-09T23:44:07.552Z,25.27
2018-06-09T23:46:35.951Z,26.20
2018-06-09T23:49:04.397Z,27.80
2018-06-09T23:51:32.744Z,24.50
2018-06-09T23:54:01.078Z,24.37
2018-06-09T23:56:29.572Z,24.13
2018-06-09T23:58:58.084Z,24.07
